• Join FlightAware (Why Join?)
  • Login
  • US Flag 
11:33PM EDT


 

Airport Tracker/Info


-or-


 

Live Flight TrackerFlight Track Log ✈ N313CR ✈ 04-May-2013 ✈ KPTK - KSDF

Flight Track Log - Related Links

Times and Time Zones

All times are in EDT time to prevent confusion due to time zone crossing. See the N313CR flight status page for this flight to view local times or setup timezone preferences in your user account.

Time Position Orientation Groundspeed Altitude Reporting Facility
EDT Latitude Longitude Course Direction KTS MPH feet Rate Location/Type
11:51AM 42.6656 -83.3983 93° East 151 174 1,600  Level Cleveland Center
11:52AM 42.6642 -83.3644 93° East 181 208 2,500 1,680 Climbing Cleveland Center
11:53AM 42.6150 -83.3342 156° South 232 267 4,200 1,740 Climbing Cleveland Center
11:53AM 42.5889 -83.3753 229° Southwest 260 299 5,300 2,160 Climbing Cleveland Center
11:54AM 42.5714 -83.4139 238° Southwest 264 304 6,400 2,280 Climbing Cleveland Center
11:54AM 42.5472 -83.4608 235° Southwest 272 313 7,600 2,400 Climbing Cleveland Center
11:55AM 42.5256 -83.4908 226° Southwest 265 305 8,900 2,520 Climbing Cleveland Center
11:56AM 42.4561 -83.5214 198° South 260 299 11,300 2,220 Climbing Cleveland Center
11:56AM 42.4161 -83.5308 190° South 262 302 12,400 1,620 Climbing Cleveland Center
11:57AM 42.3825 -83.5433 195° South 269 310 13,000 600 Climbing Cleveland Center
11:57AM 42.3383 -83.5553 191° South 304 350 13,000 120 Level Cleveland Center
11:58AM 42.2625 -83.5853 196° South 321 369 13,200 780 Climbing Cleveland Center
11:59AM 42.1806 -83.6150 195° South 321 369 14,600 1,500 Climbing Cleveland Center
12:00PM 42.0964 -83.6447 195° South 316 364 16,200 1,560 Climbing Cleveland Center
12:01PM 42.0122 -83.6742 195° South 316 364 17,800 1,740 Climbing Cleveland Center
12:02PM 41.9278 -83.7064 196° South 321 369 19,700 1,860 Climbing Cleveland Center
12:03PM 41.8419 -83.7244 189° South 321 369 21,600 1,860 Climbing Cleveland Center
12:04PM 41.7581 -83.7400 188° South 316 364 23,500 1,860 Climbing Cleveland Center
12:05PM 41.6742 -83.7608 191° South 316 364 25,400 1,200 Climbing Cleveland Center
12:06PM 41.5903 -83.7761 188° South 311 358 26,000 300 Climbing Cleveland Center
12:07PM 41.4958 -83.7964 189° South 330 380 26,000  Level Cleveland Center
12:08PM 41.3953 -83.8164 188° South 351 404 26,000  Level Cleveland Center
12:09PM 41.2903 -83.8386 189° South 372 428 26,000  Level Cleveland Center
12:10PM 41.1894 -83.8614 190° South 377 434 26,000  Level Cleveland Center
12:11PM 41.0869 -83.8808 188° South 377 434 26,000  Level Cleveland Center
12:11PM 41.0450 -83.8883 188° South 374 430 26,000  Level Indianapolis Center
12:12PM 40.9431 -83.9092 189° South 371 427 26,000  Level Indianapolis Center
12:13PM 40.8403 -83.9306 189° South 369 425 26,000  Level Indianapolis Center
12:14PM 40.7369 -83.9531 189° South 374 430 26,000  Level Indianapolis Center
12:16PM 40.6336 -83.9728 188° South 375 432 26,000  Level Indianapolis Center
12:17PM 40.5297 -83.9936 189° South 374 430 26,000  Level Indianapolis Center
12:18PM 40.4272 -84.0150 189° South 371 427 26,000  Level Indianapolis Center
12:19PM 40.3258 -84.0361 189° South 367 422 26,000  Level Indianapolis Center
12:20PM 40.2275 -84.0736 196° South 370 426 26,000  Level Indianapolis Center
12:21PM 40.1328 -84.1258 203° Southwest 370 426 26,000  Level Indianapolis Center
12:22PM 40.0372 -84.1761 202° Southwest 369 425 26,000  Level Indianapolis Center
12:23PM 39.9253 -84.2342 202° Southwest 369 425 26,000  Level Indianapolis Center
12:24PM 39.8286 -84.2844 202° Southwest 371 427 26,000  Level Indianapolis Center
12:25PM 39.7283 -84.3131 192° South 366 421 26,000  Level Indianapolis Center
12:26PM 39.6267 -84.3403 192° South 370 426 26,000  Level Indianapolis Center
12:27PM 39.5267 -84.3675 192° South 367 422 26,000  Level Indianapolis Center
12:28PM 39.4261 -84.3958 192° South 366 421 26,000  Level Indianapolis Center
12:29PM 39.3253 -84.4233 192° South 369 425 26,000 -600 Level Indianapolis Center
12:30PM 39.2242 -84.4508 192° South 367 422 24,800 -1,080 Descending Indianapolis Center
12:31PM 39.1258 -84.4792 193° South 361 415 23,900 -1,080 Descending Indianapolis Center
12:32PM 39.0322 -84.5056 192° South 346 398 22,700 -1,680 Descending Indianapolis Center
12:33PM 38.9603 -84.5825 220° Southwest 351 404 20,600 -2,220 Descending Indianapolis Center
12:33PM 38.9167 -84.6500 230° Southwest 343 395 19,200 -2,160 Descending Cincinnati TRACON
12:35PM 38.8500 -84.7833 237° Southwest 344 396 16,800 -1,800 Descending Cincinnati TRACON
12:35PM 38.8506 -84.7894 277° West 341 392 16,600 -1,740 Descending Indianapolis Center
12:36PM 38.7975 -84.8878 235° Southwest 337 388 14,600 -1,260 Descending Indianapolis Center
12:37PM 38.7439 -84.9728 231° Southwest 313 360 14,100 -840 Descending Indianapolis Center
12:38PM 38.6747 -85.0364 216° Southwest 308 354 13,000 -1,080 Descending Indianapolis Center
12:39PM 38.5972 -85.1089 216° Southwest 309 356 12,000 -840 Descending Indianapolis Center
12:40PM 38.5303 -85.1728 217° Southwest 301 346 11,400 -1,200 Descending Indianapolis Center
12:41PM 38.4531 -85.2469 217° Southwest 306 352 9,600 -1,680 Descending Indianapolis Center
12:42PM 38.3914 -85.3058 217° Southwest 284 327 8,100 -1,620 Descending Indianapolis Center
12:43PM 38.3333 -85.3603 216° Southwest 262 302 6,400 -1,080 Descending Indianapolis Center
12:44PM 38.3175 -85.4378 255° West 268 308 6,000 -240 Descending Indianapolis Center
12:45PM 38.3344 -85.5336 283° West 275 316 6,000  Level Indianapolis Center
12:46PM 38.3772 -85.6244 301° West 288 331 6,000  Level Indianapolis Center
12:47PM 38.4183 -85.7139 300° West 292 336 6,000  Level Indianapolis Center
12:48PM 38.4419 -85.7914 291° West 252 290 6,000 -960 Level Indianapolis Center
12:49PM 38.3869 -85.8031 189° South 221 254 4,100 -1,320 Descending Indianapolis Center
12:50PM 38.3381 -85.7850 164° South 206 237 3,400 -600 Descending Indianapolis Center
12:51PM 38.3025 -85.7708 163° South 176 203 2,900 -600 Descending Indianapolis Center
12:52PM 38.2669 -85.7594 166° South 153 176 2,200 -720 Descending Indianapolis Center
12:54PM 38.1741 -85.7365 172° South  Level Estimated